createdAt,value
2023-11-15T00:02:25.253Z,98631.37
2023-11-15T00:05:29.517Z,98624.86
2023-11-15T00:08:34.056Z,98621.67
2023-11-15T00:11:38.329Z,98615.52
2023-11-15T00:14:42.898Z,98617.67
2023-11-15T00:17:47.167Z,98612.98
2023-11-15T00:20:52.878Z,98617.58
2023-11-15T00:23:57.159Z,98620.64
2023-11-15T00:27:02.106Z,98620.04
2023-11-15T00:30:07.344Z,98617.52
2023-11-15T00:33:12.694Z,98616.45
2023-11-15T00:36:20.904Z,98618.14
2023-11-15T00:39:25.278Z,98620.02
2023-11-15T00:42:29.326Z,98621.84
2023-11-15T00:45:33.481Z,98627.58
2023-11-15T00:48:37.605Z,98632.66
2023-11-15T00:51:41.766Z,98631.83
2023-11-15T00:54:45.821Z,98631.96
2023-11-15T00:57:50.852Z,98630.14
2023-11-15T01:00:56.384Z,98631.14
2023-11-15T01:04:00.712Z,98630.44
2023-11-15T01:07:05.750Z,98630.75
2023-11-15T01:10:11.046Z,98626.31
2023-11-15T01:13:15.382Z,98626.63
2023-11-15T01:16:19.520Z,98627.25
2023-11-15T01:19:23.638Z,98627.27
2023-11-15T01:22:27.843Z,98629.87
2023-11-15T01:25:32.916Z,98629.00
2023-11-15T01:28:37.123Z,98625.34
2023-11-15T01:31:41.225Z,98619.58
2023-11-15T01:34:45.351Z,98619.75
2023-11-15T01:37:53.025Z,98619.34
2023-11-15T01:40:57.769Z,98624.89
2023-11-15T01:44:01.819Z,98621.35
2023-11-15T01:47:06.758Z,98623.46
2023-11-15T01:50:14.571Z,98617.61
2023-11-15T01:53:19.944Z,98618.81
2023-11-15T01:56:24.181Z,98618.05
2023-11-15T01:59:29.414Z,98620.89
2023-11-15T02:02:33.902Z,98624.66
2023-11-15T02:05:38.425Z,98626.59
2023-11-15T02:08:42.728Z,98631.11
2023-11-15T02:11:48.073Z,98626.05
2023-11-15T02:14:52.965Z,98627.52
2023-11-15T02:17:57.204Z,98624.61
2023-11-15T02:21:01.365Z,98629.05
2023-11-15T02:24:06.588Z,98630.05
2023-11-15T02:27:10.647Z,98631.42
2023-11-15T02:30:16.140Z,98631.72
2023-11-15T02:33:20.959Z,98627.95
2023-11-15T02:36:25.199Z,98635.41
2023-11-15T02:39:29.286Z,98635.89
2023-11-15T02:42:34.384Z,98638.24
2023-11-15T02:45:38.818Z,98638.11
2023-11-15T02:48:43.230Z,98640.61
2023-11-15T02:51:50.354Z,98640.75
2023-11-15T02:54:55.662Z,98640.25
2023-11-15T02:58:01.948Z,98645.05
2023-11-15T03:01:07.958Z,98651.30
2023-11-15T03:04:12.294Z,98650.97
2023-11-15T03:07:16.440Z,98657.05
2023-11-15T03:10:20.764Z,98656.25
2023-11-15T03:13:25.461Z,98661.27
2023-11-15T03:16:29.904Z,98662.06
2023-11-15T03:19:34.383Z,98664.59
2023-11-15T03:22:38.610Z,98664.71
2023-11-15T03:25:43.227Z,98668.36
2023-11-15T03:28:48.771Z,98669.06
2023-11-15T03:31:52.884Z,98672.23
2023-11-15T03:34:57.008Z,98671.02
2023-11-15T03:38:01.189Z,98675.05
2023-11-15T03:41:06.110Z,98677.48
2023-11-15T03:44:11.319Z,98675.46
2023-11-15T03:47:15.452Z,98678.69
2023-11-15T03:50:19.745Z,98680.05
2023-11-15T03:53:24.231Z,98680.24
2023-11-15T03:56:28.337Z,98679.02
2023-11-15T03:59:32.483Z,98684.37
2023-11-15T04:02:37.142Z,98689.04
2023-11-15T04:05:41.493Z,98686.19
2023-11-15T04:08:45.845Z,98684.17
2023-11-15T04:11:50.642Z,98686.55
2023-11-15T04:14:54.945Z,98681.36
2023-11-15T04:17:59.247Z,98678.16
2023-11-15T04:21:05.355Z,98682.88
2023-11-15T04:24:10.286Z,98680.64
2023-11-15T04:27:14.688Z,98680.69
2023-11-15T04:30:18.788Z,98678.24
2023-11-15T04:33:22.885Z,98679.08
2023-11-15T04:36:27.132Z,98677.98
2023-11-15T04:39:31.670Z,98681.92
2023-11-15T04:42:36.142Z,98683.13
2023-11-15T04:45:40.315Z,98688.09
2023-11-15T04:48:44.874Z,98692.54
2023-11-15T04:51:49.242Z,98694.11
2023-11-15T04:54:55.751Z,98691.01
2023-11-15T04:57:59.964Z,98689.90
2023-11-15T05:01:05.064Z,98694.45
2023-11-15T05:04:09.419Z,98691.67
2023-11-15T05:07:13.650Z,98693.00
2023-11-15T05:10:19.540Z,98692.05
2023-11-15T05:13:23.725Z,98688.43
2023-11-15T05:16:29.334Z,98691.80
2023-11-15T05:19:35.442Z,98695.14
2023-11-15T05:22:39.646Z,98698.41
2023-11-15T05:25:43.716Z,98701.50
2023-11-15T05:28:47.871Z,98703.02
2023-11-15T05:31:52.139Z,98707.80
2023-11-15T05:34:56.404Z,98706.98
2023-11-15T05:38:00.561Z,98707.83
2023-11-15T05:41:06.604Z,98710.98
2023-11-15T05:44:11.269Z,98716.10
2023-11-15T05:47:16.847Z,98717.60
2023-11-15T05:50:21.017Z,98722.27
2023-11-15T05:53:25.218Z,98724.55
2023-11-15T05:56:29.466Z,98724.60
2023-11-15T05:59:33.572Z,98728.18
2023-11-15T06:02:37.682Z,98726.86
2023-11-15T06:05:43.890Z,98726.77
2023-11-15T06:08:48.647Z,98730.27
2023-11-15T06:11:53.078Z,98734.50
2023-11-15T06:14:57.203Z,98741.88
2023-11-15T06:18:01.496Z,98743.78
2023-11-15T06:21:06.952Z,98747.08
2023-11-15T06:24:11.610Z,98744.52
2023-11-15T06:27:15.603Z,98747.98
2023-11-15T06:30:20.187Z,98750.40
2023-11-15T06:33:27.023Z,98750.96
2023-11-15T06:36:36.174Z,98752.70
2023-11-15T06:39:43.930Z,98758.96
2023-11-15T06:42:47.990Z,98758.19
2023-11-15T06:45:52.050Z,98759.24
2023-11-15T06:48:56.182Z,98758.29
2023-11-15T06:52:00.278Z,98761.70
2023-11-15T06:55:07.627Z,98765.86
2023-11-15T06:58:18.304Z,98770.64
2023-11-15T07:01:23.264Z,98769.96
2023-11-15T07:04:28.127Z,98771.01
2023-11-15T07:07:33.028Z,98779.94
2023-11-15T07:10:37.137Z,98780.11
2023-11-15T07:13:41.317Z,98778.91
2023-11-15T07:16:49.542Z,98786.39
2023-11-15T07:19:54.067Z,98787.25
2023-11-15T07:22:58.504Z,98789.68
2023-11-15T07:26:02.691Z,98789.11
2023-11-15T07:29:11.363Z,98799.36
2023-11-15T07:32:15.485Z,98796.90
2023-11-15T07:35:20.602Z,98796.41
2023-11-15T07:38:25.906Z,98797.33
2023-11-15T07:41:30.256Z,98800.72
2023-11-15T07:44:34.498Z,98801.16
2023-11-15T07:47:39.980Z,98803.02
2023-11-15T07:50:47.352Z,98807.03
2023-11-15T07:53:51.525Z,98810.50
2023-11-15T07:56:57.416Z,98814.70
2023-11-15T08:00:02.461Z,98818.08
2023-11-15T08:03:17.429Z,98814.39
2023-11-15T08:06:22.663Z,98818.38
2023-11-15T08:09:28.231Z,98820.42
2023-11-15T08:12:37.371Z,98824.54
2023-11-15T08:15:43.506Z,98826.99
2023-11-15T08:18:49.053Z,98830.48
2023-11-15T08:21:53.545Z,98828.67
2023-11-15T08:24:57.617Z,98831.13
2023-11-15T08:28:03.105Z,98832.20
2023-11-15T08:31:07.444Z,98834.79
2023-11-15T08:34:12.656Z,98842.07
2023-11-15T08:37:16.729Z,98848.09
2023-11-15T08:40:28.928Z,98844.54
2023-11-15T08:43:37.311Z,98848.20
2023-11-15T08:46:46.477Z,98853.09
2023-11-15T08:49:51.903Z,98861.17
2023-11-15T08:52:56.065Z,98868.02
2023-11-15T08:56:00.207Z,98868.98
2023-11-15T08:59:05.237Z,98875.13
2023-11-15T09:02:12.253Z,98876.34
2023-11-15T09:05:17.505Z,98878.25
2023-11-15T09:08:23.459Z,98882.63
2023-11-15T09:11:30.139Z,98884.62
2023-11-15T09:14:37.229Z,98889.04
2023-11-15T09:17:49.861Z,98886.21
2023-11-15T09:20:54.288Z,98891.73
2023-11-15T09:23:58.946Z,98890.91
2023-11-15T09:27:03.232Z,98889.34
2023-11-15T09:30:08.517Z,98886.61
2023-11-15T09:33:15.362Z,98888.56
2023-11-15T09:36:20.092Z,98889.71
2023-11-15T09:39:24.468Z,98897.85
2023-11-15T09:42:29.683Z,98895.33
2023-11-15T09:45:39.281Z,98887.36
2023-11-15T09:48:53.421Z,98885.39
2023-11-15T09:52:03.991Z,98893.77
2023-11-15T09:55:09.486Z,98893.72
2023-11-15T09:58:14.668Z,98897.79
2023-11-15T10:01:19.017Z,98899.23
2023-11-15T10:04:28.959Z,98898.61
2023-11-15T10:07:33.924Z,98903.67
2023-11-15T10:10:47.607Z,98903.52
2023-11-15T10:14:08.825Z,98908.50
2023-11-15T10:17:12.943Z,98901.56
2023-11-15T10:20:19.883Z,98902.11
2023-11-15T10:23:29.031Z,98902.95
2023-11-15T10:26:40.171Z,98906.42
2023-11-15T10:29:47.431Z,98905.86
2023-11-15T10:32:53.353Z,98909.52
2023-11-15T10:35:57.674Z,98916.93
2023-11-15T10:39:06.486Z,98916.89
2023-11-15T10:42:13.722Z,98918.29
2023-11-15T10:45:18.312Z,98919.85
2023-11-15T10:48:26.773Z,98919.30
2023-11-15T10:51:42.654Z,98919.20
2023-11-15T10:54:47.277Z,98922.56
2023-11-15T10:57:52.690Z,98924.48
2023-11-15T11:00:57.519Z,98928.66
2023-11-15T11:04:07.129Z,98929.18
2023-11-15T11:07:34.348Z,98929.80
2023-11-15T11:10:54.628Z,98932.15
2023-11-15T11:14:28.388Z,98934.77
2023-11-15T11:17:34.699Z,98936.67
2023-11-15T11:20:42.184Z,98939.59
2023-11-15T11:24:12.432Z,98943.52
2023-11-15T11:27:16.863Z,98945.33
2023-11-15T11:30:22.363Z,98948.23
2023-11-15T11:33:27.090Z,98950.39
2023-11-15T11:36:51.290Z,98954.86
2023-11-15T11:39:57.348Z,98958.09
2023-11-15T11:43:17.096Z,98960.39
2023-11-15T11:46:22.088Z,98965.27
2023-11-15T11:49:26.338Z,98967.06
2023-11-15T11:52:30.537Z,98974.08
2023-11-15T11:55:34.990Z,98973.84
2023-11-15T11:58:40.616Z,98976.95
2023-11-15T12:01:49.545Z,98974.39
2023-11-15T12:04:53.727Z,98973.90
2023-11-15T12:07:58.047Z,98975.50
2023-11-15T12:11:02.570Z,98975.44
2023-11-15T12:14:13.806Z,98978.80
2023-11-15T12:17:19.776Z,98982.39
2023-11-15T12:20:31.755Z,98985.17
2023-11-15T12:23:41.858Z,98990.69
2023-11-15T12:26:49.322Z,98990.49
2023-11-15T12:29:54.293Z,98996.48
2023-11-15T12:33:01.772Z,99002.48
2023-11-15T12:36:08.365Z,99005.88
2023-11-15T12:39:17.765Z,99013.29
2023-11-15T12:42:29.114Z,99015.75
2023-11-15T12:45:36.250Z,99016.40
2023-11-15T12:48:46.602Z,99021.35
2023-11-15T12:51:53.177Z,99027.30
2023-11-15T12:54:57.990Z,99030.17
2023-11-15T12:58:02.660Z,99037.32
2023-11-15T13:01:09.323Z,99039.80
2023-11-15T13:04:15.604Z,99042.38
2023-11-15T13:07:19.873Z,99045.40
2023-11-15T13:10:23.966Z,99047.27
2023-11-15T13:13:28.624Z,99050.75
2023-11-15T13:16:34.163Z,99058.09
2023-11-15T13:19:38.363Z,99062.14
2023-11-15T13:22:43.326Z,99068.49
2023-11-15T13:25:48.003Z,99078.25
2023-11-15T13:28:51.998Z,99082.27
2023-11-15T13:31:56.613Z,99085.02
2023-11-15T13:35:08.250Z,99086.67
2023-11-15T13:38:13.718Z,99093.65
2023-11-15T13:41:23.298Z,99099.26
2023-11-15T13:44:27.897Z,99107.77
2023-11-15T13:47:32.550Z,99119.19
2023-11-15T13:50:37.284Z,99131.80
2023-11-15T13:53:42.105Z,99138.23
2023-11-15T13:56:47.064Z,99145.27
2023-11-15T13:59:51.266Z,99151.16
2023-11-15T14:02:55.762Z,99160.21
2023-11-15T14:06:03.301Z,99166.42
2023-11-15T14:09:10.416Z,99169.39
2023-11-15T14:12:14.640Z,99174.85
2023-11-15T14:15:20.323Z,99185.99
2023-11-15T14:18:24.921Z,99187.96
2023-11-15T14:21:31.467Z,99191.68
2023-11-15T14:24:36.229Z,99207.23
2023-11-15T14:27:40.741Z,99216.65
2023-11-15T14:30:45.302Z,99228.33
2023-11-15T14:33:49.754Z,99236.77
2023-11-15T14:36:56.125Z,99239.93
2023-11-15T14:40:00.803Z,99246.71
2023-11-15T14:43:06.300Z,99260.50
2023-11-15T14:46:10.452Z,99266.27
2023-11-15T14:49:14.725Z,99278.55
2023-11-15T14:52:22.893Z,99279.94
2023-11-15T14:55:32.960Z,99288.50
2023-11-15T14:58:37.338Z,99291.41
2023-11-15T15:01:41.613Z,99300.52
2023-11-15T15:04:48.281Z,99307.47
2023-11-15T15:07:54.219Z,99310.70
2023-11-15T15:10:58.563Z,99317.27
2023-11-15T15:14:02.643Z,99324.70
2023-11-15T15:17:14.611Z,99331.17
2023-11-15T15:20:26.185Z,99337.93
2023-11-15T15:23:30.454Z,99354.14
2023-11-15T15:26:35.447Z,99359.40
2023-11-15T15:29:40.791Z,99364.36
2023-11-15T15:32:45.928Z,99371.20
2023-11-15T15:35:51.109Z,99378.88
2023-11-15T15:38:55.468Z,99387.39
2023-11-15T15:42:00.387Z,99389.23
2023-11-15T15:45:07.558Z,99398.52
2023-11-15T15:48:13.900Z,99404.39
2023-11-15T15:51:18.352Z,99409.35
2023-11-15T15:54:22.944Z,99423.98
2023-11-15T15:57:27.154Z,99431.16
2023-11-15T16:00:31.396Z,99442.02
2023-11-15T16:03:36.058Z,99444.60
2023-11-15T16:06:40.193Z,99447.60
2023-11-15T16:09:44.267Z,99453.27
2023-11-15T16:12:51.140Z,99460.86
2023-11-15T16:15:55.580Z,99464.24
2023-11-15T16:18:59.793Z,99465.74
2023-11-15T16:22:04.212Z,99477.52
2023-11-15T16:25:09.669Z,99484.52
2023-11-15T16:28:14.293Z,99489.02
2023-11-15T16:31:18.485Z,99496.45
2023-11-15T16:34:24.241Z,99498.09
2023-11-15T16:37:29.815Z,99500.65
2023-11-15T16:40:39.334Z,99504.26
2023-11-15T16:43:43.428Z,99512.04
2023-11-15T16:46:48.894Z,99523.35
2023-11-15T16:49:55.839Z,99523.80
2023-11-15T16:53:01.520Z,99528.65
2023-11-15T16:56:07.184Z,99529.48
2023-11-15T16:59:13.212Z,99535.61
2023-11-15T17:02:17.426Z,99538.74
2023-11-15T17:05:21.613Z,99544.81
2023-11-15T17:08:28.475Z,99549.41
2023-11-15T17:11:33.173Z,99554.23
2023-11-15T17:14:37.214Z,99562.15
2023-11-15T17:17:41.273Z,99573.54
2023-11-15T17:20:46.052Z,99585.16
2023-11-15T17:23:50.198Z,99597.91
2023-11-15T17:26:54.664Z,99607.89
2023-11-15T17:29:59.689Z,99617.48
2023-11-15T17:33:04.219Z,99631.51
2023-11-15T17:36:10.062Z,99642.34
2023-11-15T17:39:16.087Z,99648.35
2023-11-15T17:42:20.678Z,99659.46
2023-11-15T17:45:24.808Z,99665.91
2023-11-15T17:48:29.811Z,99675.09
2023-11-15T17:51:34.017Z,99676.48
2023-11-15T17:54:38.143Z,99679.50
2023-11-15T17:57:45.083Z,99681.99
2023-11-15T18:00:49.878Z,99686.12
2023-11-15T18:03:53.963Z,99684.45
2023-11-15T18:06:58.365Z,99695.98
2023-11-15T18:10:02.910Z,99698.45
2023-11-15T18:13:07.187Z,99706.73
2023-11-15T18:16:12.244Z,99711.89
2023-11-15T18:19:21.990Z,99720.38
2023-11-15T18:22:26.392Z,99733.52
2023-11-15T18:25:30.723Z,99743.46
2023-11-15T18:28:35.040Z,99752.59
2023-11-15T18:31:39.267Z,99758.46
2023-11-15T18:34:43.629Z,99766.87
2023-11-15T18:37:48.004Z,99772.02
2023-11-15T18:40:52.328Z,99770.56
2023-11-15T18:43:58.032Z,99775.36
2023-11-15T18:47:02.345Z,99774.97
2023-11-15T18:50:08.454Z,99774.14
2023-11-15T18:53:14.720Z,99777.96
2023-11-15T18:56:18.890Z,99784.43
2023-11-15T18:59:23.469Z,99787.40
2023-11-15T19:02:27.637Z,99789.92
2023-11-15T19:05:32.868Z,99789.95
2023-11-15T19:08:37.443Z,99792.17
2023-11-15T19:11:41.587Z,99803.12
2023-11-15T19:14:45.685Z,99808.95
2023-11-15T19:17:50.620Z,99815.30
2023-11-15T19:20:55.237Z,99823.36
2023-11-15T19:24:01.009Z,99829.80
2023-11-15T19:27:05.807Z,99833.34
2023-11-15T19:30:11.026Z,99837.98
2023-11-15T19:33:15.532Z,99845.17
2023-11-15T19:36:19.693Z,99847.27
2023-11-15T19:39:23.980Z,99849.29
2023-11-15T19:42:29.194Z,99851.80
2023-11-15T19:45:34.425Z,99855.16
2023-11-15T19:48:38.857Z,99861.45
2023-11-15T19:51:45.045Z,99860.41
2023-11-15T19:54:51.287Z,99860.34
2023-11-15T19:57:55.439Z,99863.42
2023-11-15T20:01:03.691Z,99870.89
2023-11-15T20:04:07.987Z,99868.97
2023-11-15T20:07:14.812Z,99870.59
2023-11-15T20:10:20.181Z,99876.09
2023-11-15T20:13:24.627Z,99881.34
2023-11-15T20:16:29.573Z,99882.91
2023-11-15T20:19:33.797Z,99881.39
2023-11-15T20:22:45.616Z,99892.04
2023-11-15T20:25:55.580Z,99900.16
2023-11-15T20:28:59.680Z,99900.41
2023-11-15T20:32:04.072Z,99901.02
2023-11-15T20:35:08.738Z,99904.58
2023-11-15T20:38:12.815Z,99908.29
2023-11-15T20:41:17.479Z,99910.63
2023-11-15T20:44:21.706Z,99913.64
2023-11-15T20:47:25.962Z,99916.21
2023-11-15T20:50:30.850Z,99922.91
2023-11-15T20:53:35.070Z,99933.23
2023-11-15T20:56:40.109Z,99936.55
2023-11-15T20:59:44.771Z,99945.12
2023-11-15T21:02:48.909Z,99947.02
2023-11-15T21:05:53.137Z,99949.30
2023-11-15T21:08:57.610Z,99950.08
2023-11-15T21:12:04.290Z,99955.23
2023-11-15T21:15:11.105Z,99959.17
2023-11-15T21:18:15.783Z,99967.77
2023-11-15T21:21:20.093Z,99972.29
2023-11-15T21:24:24.427Z,99982.49
2023-11-15T21:27:29.157Z,99987.54
2023-11-15T21:30:35.602Z,99989.25
2023-11-15T21:33:40.112Z,99993.60
2023-11-15T21:36:45.644Z,99991.69
2023-11-15T21:39:50.126Z,99991.58
2023-11-15T21:42:54.267Z,99995.45
2023-11-15T21:45:58.588Z,99997.35
2023-11-15T21:49:02.864Z,100000.14
2023-11-15T21:52:07.922Z,100004.02
2023-11-15T21:55:12.505Z,100002.15
2023-11-15T21:58:18.153Z,100002.15
2023-11-15T22:01:22.764Z,100007.73
2023-11-15T22:04:26.779Z,100010.27
2023-11-15T22:07:31.239Z,100009.48
2023-11-15T22:10:35.315Z,100006.75
2023-11-15T22:13:39.549Z,100010.70
2023-11-15T22:16:43.637Z,100020.83
2023-11-15T22:19:47.728Z,100019.80
2023-11-15T22:22:52.050Z,100023.00
2023-11-15T22:25:56.156Z,100023.54
2023-11-15T22:29:00.297Z,100025.95
2023-11-15T22:32:05.206Z,100030.08
2023-11-15T22:35:11.164Z,100036.45
2023-11-15T22:38:16.303Z,100038.51
2023-11-15T22:41:20.567Z,100042.14
2023-11-15T22:44:24.741Z,100048.20
2023-11-15T22:47:28.849Z,100047.53
2023-11-15T22:50:32.941Z,100051.65
2023-11-15T22:53:37.047Z,100057.80
2023-11-15T22:56:45.482Z,100059.19
2023-11-15T22:59:52.356Z,100064.75
2023-11-15T23:02:57.323Z,100068.45
2023-11-15T23:06:01.733Z,100073.54
2023-11-15T23:09:06.228Z,100079.07
2023-11-15T23:12:10.361Z,100076.94
2023-11-15T23:15:14.503Z,100080.25
2023-11-15T23:18:19.593Z,100076.61
2023-11-15T23:21:23.844Z,100078.45
2023-11-15T23:24:29.524Z,100084.09
2023-11-15T23:27:37.260Z,100080.98
2023-11-15T23:30:42.589Z,100086.51
2023-11-15T23:33:47.040Z,100086.69
2023-11-15T23:36:53.236Z,100087.98
2023-11-15T23:39:58.066Z,100087.50
2023-11-15T23:43:02.546Z,100088.80
2023-11-15T23:46:07.040Z,100093.13
2023-11-15T23:49:11.121Z,100096.07
2023-11-15T23:52:15.319Z,100098.20
2023-11-15T23:55:23.913Z,100100.01
2023-11-15T23:58:29.354Z,100103.67
